sensor_id;sensor_type;location;lat;lon;timestamp;temperature;humidity
16102;DHT22;56411;52.964;10.540;2023-04-15T00:01:22;6.80;99.90
16102;DHT22;56411;52.964;10.540;2023-04-15T00:03:52;6.80;99.90
16102;DHT22;56411;52.964;10.540;2023-04-15T00:06:20;6.80;99.90
16102;DHT22;56411;52.964;10.540;2023-04-15T00:08:47;6.80;99.90
16102;DHT22;56411;52.964;10.540;2023-04-15T00:11:15;6.80;99.90
16102;DHT22;56411;52.964;10.540;2023-04-15T00:13:43;6.80;99.90
16102;DHT22;56411;52.964;10.540;2023-04-15T00:16:10;6.80;99.90
16102;DHT22;56411;52.964;10.540;2023-04-15T00:18:37;6.80;99.90
16102;DHT22;56411;52.964;10.540;2023-04-15T00:21:06;6.80;99.90
16102;DHT22;56411;52.964;10.540;2023-04-15T00:23:34;6.80;99.90
16102;DHT22;56411;52.964;10.540;2023-04-15T00:26:02;6.80;99.90
16102;DHT22;56411;52.964;10.540;2023-04-15T00:28:29;6.80;99.90
16102;DHT22;56411;52.964;10.540;2023-04-15T00:30:56;6.80;99.90
16102;DHT22;56411;52.964;10.540;2023-04-15T00:33:24;6.80;99.90
16102;DHT22;56411;52.964;10.540;2023-04-15T00:35:51;6.80;99.90
16102;DHT22;56411;52.964;10.540;2023-04-15T00:38:19;6.80;99.90
16102;DHT22;56411;52.964;10.540;2023-04-15T00:40:46;6.80;99.90
16102;DHT22;56411;52.964;10.540;2023-04-15T00:43:14;6.70;99.90
16102;DHT22;56411;52.964;10.540;2023-04-15T00:45:41;6.70;99.90
16102;DHT22;56411;52.964;10.540;2023-04-15T00:48:08;6.70;99.90
16102;DHT22;56411;52.964;10.540;2023-04-15T00:50:35;6.80;99.90
16102;DHT22;56411;52.964;10.540;2023-04-15T00:53:03;6.80;99.90
16102;DHT22;56411;52.964;10.540;2023-04-15T00:55:31;6.80;99.90
16102;DHT22;56411;52.964;10.540;2023-04-15T00:57:58;6.70;99.90
16102;DHT22;56411;52.964;10.540;2023-04-15T01:00:26;6.70;99.90
16102;DHT22;56411;52.964;10.540;2023-04-15T01:02:53;6.80;99.90
16102;DHT22;56411;52.964;10.540;2023-04-15T01:05:20;6.70;99.90
16102;DHT22;56411;52.964;10.540;2023-04-15T01:07:48;6.70;99.90
16102;DHT22;56411;52.964;10.540;2023-04-15T01:10:15;6.70;99.90
16102;DHT22;56411;52.964;10.540;2023-04-15T01:12:45;6.70;99.90
16102;DHT22;56411;52.964;10.540;2023-04-15T01:15:12;6.70;99.90
16102;DHT22;56411;52.964;10.540;2023-04-15T01:17:40;6.70;99.90
16102;DHT22;56411;52.964;10.540;2023-04-15T01:20:08;6.70;99.90
16102;DHT22;56411;52.964;10.540;2023-04-15T01:22:36;6.70;99.90
16102;DHT22;56411;52.964;10.540;2023-04-15T01:25:08;6.70;99.90
16102;DHT22;56411;52.964;10.540;2023-04-15T01:27:38;6.70;99.90
16102;DHT22;56411;52.964;10.540;2023-04-15T01:30:08;6.70;99.90
16102;DHT22;56411;52.964;10.540;2023-04-15T01:32:36;6.70;99.90
16102;DHT22;56411;52.964;10.540;2023-04-15T01:35:04;6.70;99.90
16102;DHT22;56411;52.964;10.540;2023-04-15T01:37:31;6.70;99.90
16102;DHT22;56411;52.964;10.540;2023-04-15T01:39:58;6.70;99.90
16102;DHT22;56411;52.964;10.540;2023-04-15T01:42:26;6.70;99.90
16102;DHT22;56411;52.964;10.540;2023-04-15T01:44:54;6.70;99.90
16102;DHT22;56411;52.964;10.540;2023-04-15T01:47:22;6.80;99.90
16102;DHT22;56411;52.964;10.540;2023-04-15T01:49:49;6.70;99.90
16102;DHT22;56411;52.964;10.540;2023-04-15T01:52:16;6.70;99.90
16102;DHT22;56411;52.964;10.540;2023-04-15T01:54:44;6.70;99.90
16102;DHT22;56411;52.964;10.540;2023-04-15T01:57:11;6.70;99.90
16102;DHT22;56411;52.964;10.540;2023-04-15T01:59:38;6.70;99.90
16102;DHT22;56411;52.964;10.540;2023-04-15T02:02:08;6.70;99.90
16102;DHT22;56411;52.964;10.540;2023-04-15T02:04:35;6.80;99.90
16102;DHT22;56411;52.964;10.540;2023-04-15T02:07:03;6.70;99.90
16102;DHT22;56411;52.964;10.540;2023-04-15T02:09:30;6.70;99.90
16102;DHT22;56411;52.964;10.540;2023-04-15T02:12:00;6.70;99.90
16102;DHT22;56411;52.964;10.540;2023-04-15T02:14:28;6.70;99.90
16102;DHT22;56411;52.964;10.540;2023-04-15T02:16:55;6.70;99.90
16102;DHT22;56411;52.964;10.540;2023-04-15T02:19:23;6.70;99.90
16102;DHT22;56411;52.964;10.540;2023-04-15T02:21:51;6.70;99.90
16102;DHT22;56411;52.964;10.540;2023-04-15T02:24:18;6.70;99.90
16102;DHT22;56411;52.964;10.540;2023-04-15T02:26:45;6.70;99.90
16102;DHT22;56411;52.964;10.540;2023-04-15T02:29:12;6.70;99.90
16102;DHT22;56411;52.964;10.540;2023-04-15T02:31:40;6.70;99.90
16102;DHT22;56411;52.964;10.540;2023-04-15T02:34:08;6.70;99.90
16102;DHT22;56411;52.964;10.540;2023-04-15T02:36:37;6.70;99.90
16102;DHT22;56411;52.964;10.540;2023-04-15T02:39:05;6.80;99.90
16102;DHT22;56411;52.964;10.540;2023-04-15T02:41:32;6.70;99.90
16102;DHT22;56411;52.964;10.540;2023-04-15T02:43:59;6.70;99.90
16102;DHT22;56411;52.964;10.540;2023-04-15T02:46:26;6.70;99.90
16102;DHT22;56411;52.964;10.540;2023-04-15T02:48:53;6.70;99.90
16102;DHT22;56411;52.964;10.540;2023-04-15T02:51:21;6.70;99.90
16102;DHT22;56411;52.964;10.540;2023-04-15T02:53:49;6.70;99.90
16102;DHT22;56411;52.964;10.540;2023-04-15T02:56:17;6.70;99.90
16102;DHT22;56411;52.964;10.540;2023-04-15T02:58:44;6.70;99.90
16102;DHT22;56411;52.964;10.540;2023-04-15T03:01:11;6.70;99.90
16102;DHT22;56411;52.964;10.540;2023-04-15T03:03:39;6.70;99.90
16102;DHT22;56411;52.964;10.540;2023-04-15T03:06:06;6.70;99.90
16102;DHT22;56411;52.964;10.540;2023-04-15T03:08:33;6.70;99.90
16102;DHT22;56411;52.964;10.540;2023-04-15T03:11:02;6.70;99.90
16102;DHT22;56411;52.964;10.540;2023-04-15T03:13:30;6.70;99.90
16102;DHT22;56411;52.964;10.540;2023-04-15T03:15:57;6.70;99.90
16102;DHT22;56411;52.964;10.540;2023-04-15T03:18:24;6.80;99.90
16102;DHT22;56411;52.964;10.540;2023-04-15T03:20:51;6.80;99.90
16102;DHT22;56411;52.964;10.540;2023-04-15T03:23:18;6.80;99.90
16102;DHT22;56411;52.964;10.540;2023-04-15T03:25:45;6.70;99.90
16102;DHT22;56411;52.964;10.540;2023-04-15T03:28:14;6.70;99.90
16102;DHT22;56411;52.964;10.540;2023-04-15T03:30:41;6.70;99.90
16102;DHT22;56411;52.964;10.540;2023-04-15T03:33:08;6.80;99.90
16102;DHT22;56411;52.964;10.540;2023-04-15T03:35:36;6.80;99.90
16102;DHT22;56411;52.964;10.540;2023-04-15T03:38:03;6.80;99.90
16102;DHT22;56411;52.964;10.540;2023-04-15T03:40:30;6.80;99.90
16102;DHT22;56411;52.964;10.540;2023-04-15T03:42:57;6.70;99.90
16102;DHT22;56411;52.964;10.540;2023-04-15T03:45:26;6.80;99.90
16102;DHT22;56411;52.964;10.540;2023-04-15T03:47:53;6.70;99.90
16102;DHT22;56411;52.964;10.540;2023-04-15T03:50:20;6.80;99.90
16102;DHT22;56411;52.964;10.540;2023-04-15T03:52:47;6.80;99.90
16102;DHT22;56411;52.964;10.540;2023-04-15T03:55:14;6.80;99.90
16102;DHT22;56411;52.964;10.540;2023-04-15T03:57:41;6.80;99.90
16102;DHT22;56411;52.964;10.540;2023-04-15T04:00:09;6.80;99.90
16102;DHT22;56411;52.964;10.540;2023-04-15T04:02:38;6.80;99.90
16102;DHT22;56411;52.964;10.540;2023-04-15T04:05:05;6.80;99.90
16102;DHT22;56411;52.964;10.540;2023-04-15T04:07:32;6.80;99.90
16102;DHT22;56411;52.964;10.540;2023-04-15T04:10:00;6.80;99.90
16102;DHT22;56411;52.964;10.540;2023-04-15T04:12:28;6.80;99.90
16102;DHT22;56411;52.964;10.540;2023-04-15T04:14:55;6.80;99.90
16102;DHT22;56411;52.964;10.540;2023-04-15T04:17:22;6.80;99.90
16102;DHT22;56411;52.964;10.540;2023-04-15T04:19:51;6.80;99.90
16102;DHT22;56411;52.964;10.540;2023-04-15T04:22:21;6.80;99.90
16102;DHT22;56411;52.964;10.540;2023-04-15T04:24:49;6.80;99.90
16102;DHT22;56411;52.964;10.540;2023-04-15T04:27:16;6.80;99.90
16102;DHT22;56411;52.964;10.540;2023-04-15T04:29:43;6.80;99.90
16102;DHT22;56411;52.964;10.540;2023-04-15T04:32:12;6.90;99.90
16102;DHT22;56411;52.964;10.540;2023-04-15T04:34:39;6.90;99.90
16102;DHT22;56411;52.964;10.540;2023-04-15T04:37:07;6.90;99.90
16102;DHT22;56411;52.964;10.540;2023-04-15T04:39:35;6.90;99.90
16102;DHT22;56411;52.964;10.540;2023-04-15T04:42:02;6.90;99.90
16102;DHT22;56411;52.964;10.540;2023-04-15T04:44:29;6.90;99.90
16102;DHT22;56411;52.964;10.540;2023-04-15T04:46:56;6.90;99.90
16102;DHT22;56411;52.964;10.540;2023-04-15T04:49:23;6.90;99.90
16102;DHT22;56411;52.964;10.540;2023-04-15T04:51:51;7.00;99.90
16102;DHT22;56411;52.964;10.540;2023-04-15T04:54:19;7.00;99.90
16102;DHT22;56411;52.964;10.540;2023-04-15T04:56:48;7.00;99.90
16102;DHT22;56411;52.964;10.540;2023-04-15T04:59:15;7.00;99.90
16102;DHT22;56411;52.964;10.540;2023-04-15T05:01:42;7.00;99.90
16102;DHT22;56411;52.964;10.540;2023-04-15T05:04:10;7.00;99.90
16102;DHT22;56411;52.964;10.540;2023-04-15T05:06:37;7.00;99.90
16102;DHT22;56411;52.964;10.540;2023-04-15T05:09:04;7.00;99.90
16102;DHT22;56411;52.964;10.540;2023-04-15T05:11:33;7.00;99.90
16102;DHT22;56411;52.964;10.540;2023-04-15T05:14:00;7.00;99.90
16102;DHT22;56411;52.964;10.540;2023-04-15T05:16:27;7.00;99.90
16102;DHT22;56411;52.964;10.540;2023-04-15T05:18:55;7.10;99.90
16102;DHT22;56411;52.964;10.540;2023-04-15T05:21:22;7.10;99.90
16102;DHT22;56411;52.964;10.540;2023-04-15T05:23:50;7.10;99.90
16102;DHT22;56411;52.964;10.540;2023-04-15T05:26:17;7.10;99.90
16102;DHT22;56411;52.964;10.540;2023-04-15T05:28:47;7.10;99.90
16102;DHT22;56411;52.964;10.540;2023-04-15T05:31:14;7.10;99.90
16102;DHT22;56411;52.964;10.540;2023-04-15T05:33:41;7.10;99.90
16102;DHT22;56411;52.964;10.540;2023-04-15T05:36:09;7.10;99.90
16102;DHT22;56411;52.964;10.540;2023-04-15T05:38:36;7.20;99.90
16102;DHT22;56411;52.964;10.540;2023-04-15T05:41:04;7.20;99.90
16102;DHT22;56411;52.964;10.540;2023-04-15T05:43:31;7.20;99.90
16102;DHT22;56411;52.964;10.540;2023-04-15T05:45:59;7.20;99.90
16102;DHT22;56411;52.964;10.540;2023-04-15T05:48:26;7.20;99.90
16102;DHT22;56411;52.964;10.540;2023-04-15T05:50:53;7.20;99.90
16102;DHT22;56411;52.964;10.540;2023-04-15T05:53:21;7.20;99.90
16102;DHT22;56411;52.964;10.540;2023-04-15T05:55:48;7.20;99.90
16102;DHT22;56411;52.964;10.540;2023-04-15T05:58:15;7.20;99.90
16102;DHT22;56411;52.964;10.540;2023-04-15T06:00:42;7.20;99.90
16102;DHT22;56411;52.964;10.540;2023-04-15T06:03:12;7.20;99.90
16102;DHT22;56411;52.964;10.540;2023-04-15T06:05:39;7.20;99.90
16102;DHT22;56411;52.964;10.540;2023-04-15T06:08:06;7.20;99.90
16102;DHT22;56411;52.964;10.540;2023-04-15T06:10:34;7.20;99.90
16102;DHT22;56411;52.964;10.540;2023-04-15T06:13:02;7.20;99.90
16102;DHT22;56411;52.964;10.540;2023-04-15T06:15:29;7.20;99.90
16102;DHT22;56411;52.964;10.540;2023-04-15T06:17:56;7.20;99.90
16102;DHT22;56411;52.964;10.540;2023-04-15T06:20:25;7.20;99.90
16102;DHT22;56411;52.964;10.540;2023-04-15T06:22:52;7.20;99.90
16102;DHT22;56411;52.964;10.540;2023-04-15T06:25:19;7.20;99.90
16102;DHT22;56411;52.964;10.540;2023-04-15T06:27:46;7.20;99.90
16102;DHT22;56411;52.964;10.540;2023-04-15T06:30:14;7.20;99.90
16102;DHT22;56411;52.964;10.540;2023-04-15T06:32:41;7.20;99.90
16102;DHT22;56411;52.964;10.540;2023-04-15T06:35:08;7.20;99.90
16102;DHT22;56411;52.964;10.540;2023-04-15T06:37:37;7.20;99.90
16102;DHT22;56411;52.964;10.540;2023-04-15T06:40:06;7.20;99.90
16102;DHT22;56411;52.964;10.540;2023-04-15T06:42:34;7.30;99.90
16102;DHT22;56411;52.964;10.540;2023-04-15T06:45:03;7.30;99.90
16102;DHT22;56411;52.964;10.540;2023-04-15T06:47:31;7.30;99.90
16102;DHT22;56411;52.964;10.540;2023-04-15T06:49:58;7.30;99.90
16102;DHT22;56411;52.964;10.540;2023-04-15T06:52:25;7.30;99.90
16102;DHT22;56411;52.964;10.540;2023-04-15T06:54:54;7.30;99.90
16102;DHT22;56411;52.964;10.540;2023-04-15T06:57:22;7.20;99.90
16102;DHT22;56411;52.964;10.540;2023-04-15T06:59:49;7.30;99.90
16102;DHT22;56411;52.964;10.540;2023-04-15T07:02:17;7.30;99.90
16102;DHT22;56411;52.964;10.540;2023-04-15T07:04:44;7.30;99.90
16102;DHT22;56411;52.964;10.540;2023-04-15T07:07:11;7.40;99.90
16102;DHT22;56411;52.964;10.540;2023-04-15T07:09:38;7.40;99.90
16102;DHT22;56411;52.964;10.540;2023-04-15T07:12:06;7.50;99.90
16102;DHT22;56411;52.964;10.540;2023-04-15T07:14:33;7.50;99.90
16102;DHT22;56411;52.964;10.540;2023-04-15T07:17:01;7.60;99.90
16102;DHT22;56411;52.964;10.540;2023-04-15T07:19:28;7.70;99.90
16102;DHT22;56411;52.964;10.540;2023-04-15T07:21:55;7.80;99.90
16102;DHT22;56411;52.964;10.540;2023-04-15T07:24:23;7.80;99.90
16102;DHT22;56411;52.964;10.540;2023-04-15T07:26:52;7.90;99.90
16102;DHT22;56411;52.964;10.540;2023-04-15T07:29:20;7.90;99.90
16102;DHT22;56411;52.964;10.540;2023-04-15T07:31:47;7.90;99.90
16102;DHT22;56411;52.964;10.540;2023-04-15T07:34:14;7.80;99.90
16102;DHT22;56411;52.964;10.540;2023-04-15T07:36:42;7.90;99.90
16102;DHT22;56411;52.964;10.540;2023-04-15T07:39:09;7.90;99.90
16102;DHT22;56411;52.964;10.540;2023-04-15T07:41:36;7.90;99.90
16102;DHT22;56411;52.964;10.540;2023-04-15T07:44:04;8.00;99.90
16102;DHT22;56411;52.964;10.540;2023-04-15T07:46:33;8.00;99.90
16102;DHT22;56411;52.964;10.540;2023-04-15T07:49:01;8.10;99.90
16102;DHT22;56411;52.964;10.540;2023-04-15T07:51:29;8.10;99.90
16102;DHT22;56411;52.964;10.540;2023-04-15T07:53:56;8.10;99.90
16102;DHT22;56411;52.964;10.540;2023-04-15T07:56:23;8.10;99.90
16102;DHT22;56411;52.964;10.540;2023-04-15T07:58:51;8.20;99.90
16102;DHT22;56411;52.964;10.540;2023-04-15T08:01:19;8.30;99.90
16102;DHT22;56411;52.964;10.540;2023-04-15T08:03:47;8.30;99.90
16102;DHT22;56411;52.964;10.540;2023-04-15T08:06:14;8.20;99.90
16102;DHT22;56411;52.964;10.540;2023-04-15T08:08:41;8.20;99.90
16102;DHT22;56411;52.964;10.540;2023-04-15T08:11:08;8.10;99.90
16102;DHT22;56411;52.964;10.540;2023-04-15T08:13:35;8.10;99.90
16102;DHT22;56411;52.964;10.540;2023-04-15T08:16:16;8.10;99.90
16102;DHT22;56411;52.964;10.540;2023-04-15T08:18:44;8.10;99.90
16102;DHT22;56411;52.964;10.540;2023-04-15T08:21:13;8.10;99.90
16102;DHT22;56411;52.964;10.540;2023-04-15T08:23:40;8.20;99.90
16102;DHT22;56411;52.964;10.540;2023-04-15T08:26:08;8.20;99.90
16102;DHT22;56411;52.964;10.540;2023-04-15T08:28:36;8.20;99.90
16102;DHT22;56411;52.964;10.540;2023-04-15T08:31:04;8.20;99.90
16102;DHT22;56411;52.964;10.540;2023-04-15T08:33:31;8.30;99.90
16102;DHT22;56411;52.964;10.540;2023-04-15T08:35:58;8.20;99.90
16102;DHT22;56411;52.964;10.540;2023-04-15T08:38:27;8.30;99.90
16102;DHT22;56411;52.964;10.540;2023-04-15T08:40:55;8.30;99.90
16102;DHT22;56411;52.964;10.540;2023-04-15T08:43:26;8.40;99.90
16102;DHT22;56411;52.964;10.540;2023-04-15T08:45:55;8.40;99.90
16102;DHT22;56411;52.964;10.540;2023-04-15T08:48:27;8.40;99.90
16102;DHT22;56411;52.964;10.540;2023-04-15T08:50:55;8.50;99.90
16102;DHT22;56411;52.964;10.540;2023-04-15T08:53:23;8.40;99.90
16102;DHT22;56411;52.964;10.540;2023-04-15T08:55:54;8.40;99.90
16102;DHT22;56411;52.964;10.540;2023-04-15T08:58:23;8.50;99.90
16102;DHT22;56411;52.964;10.540;2023-04-15T09:00:50;8.50;99.90
16102;DHT22;56411;52.964;10.540;2023-04-15T09:03:19;8.50;99.90
16102;DHT22;56411;52.964;10.540;2023-04-15T09:05:49;8.50;99.90
16102;DHT22;56411;52.964;10.540;2023-04-15T09:08:16;8.60;99.90
16102;DHT22;56411;52.964;10.540;2023-04-15T09:10:43;8.50;99.90
16102;DHT22;56411;52.964;10.540;2023-04-15T09:13:13;8.50;99.90
16102;DHT22;56411;52.964;10.540;2023-04-15T09:15:40;8.50;99.90
16102;DHT22;56411;52.964;10.540;2023-04-15T09:18:08;8.60;99.90
16102;DHT22;56411;52.964;10.540;2023-04-15T09:20:38;8.70;99.90
16102;DHT22;56411;52.964;10.540;2023-04-15T09:23:15;8.70;99.90
16102;DHT22;56411;52.964;10.540;2023-04-15T09:25:43;8.80;99.90
16102;DHT22;56411;52.964;10.540;2023-04-15T09:28:12;8.80;99.90
16102;DHT22;56411;52.964;10.540;2023-04-15T09:30:42;8.70;99.90
16102;DHT22;56411;52.964;10.540;2023-04-15T09:33:13;8.60;99.90
16102;DHT22;56411;52.964;10.540;2023-04-15T09:35:41;8.60;99.90
16102;DHT22;56411;52.964;10.540;2023-04-15T09:38:09;8.60;99.90
16102;DHT22;56411;52.964;10.540;2023-04-15T09:40:39;8.60;99.90
16102;DHT22;56411;52.964;10.540;2023-04-15T09:43:07;8.70;99.90
16102;DHT22;56411;52.964;10.540;2023-04-15T09:45:46;8.80;99.90
16102;DHT22;56411;52.964;10.540;2023-04-15T09:48:17;8.80;99.90
16102;DHT22;56411;52.964;10.540;2023-04-15T09:50:45;8.90;99.90
16102;DHT22;56411;52.964;10.540;2023-04-15T09:53:16;9.00;99.90
16102;DHT22;56411;52.964;10.540;2023-04-15T09:55:46;9.00;99.90
16102;DHT22;56411;52.964;10.540;2023-04-15T09:58:19;9.00;99.90
16102;DHT22;56411;52.964;10.540;2023-04-15T10:00:48;8.90;99.90
16102;DHT22;56411;52.964;10.540;2023-04-15T10:03:18;8.80;99.90
16102;DHT22;56411;52.964;10.540;2023-04-15T10:05:47;8.70;99.90
16102;DHT22;56411;52.964;10.540;2023-04-15T10:08:17;8.80;99.90
16102;DHT22;56411;52.964;10.540;2023-04-15T10:10:45;8.90;99.90
16102;DHT22;56411;52.964;10.540;2023-04-15T10:13:15;9.00;99.90
16102;DHT22;56411;52.964;10.540;2023-04-15T10:15:44;8.90;99.90
16102;DHT22;56411;52.964;10.540;2023-04-15T10:18:18;8.90;99.90
16102;DHT22;56411;52.964;10.540;2023-04-15T10:20:47;9.00;99.90
16102;DHT22;56411;52.964;10.540;2023-04-15T10:23:14;9.10;99.90
16102;DHT22;56411;52.964;10.540;2023-04-15T10:25:42;9.20;99.90
16102;DHT22;56411;52.964;10.540;2023-04-15T10:28:10;9.20;99.90
16102;DHT22;56411;52.964;10.540;2023-04-15T10:30:37;9.20;99.90
16102;DHT22;56411;52.964;10.540;2023-04-15T10:33:05;9.20;99.90
16102;DHT22;56411;52.964;10.540;2023-04-15T10:35:35;9.20;99.90
16102;DHT22;56411;52.964;10.540;2023-04-15T10:38:30;9.20;99.90
16102;DHT22;56411;52.964;10.540;2023-04-15T10:41:12;9.30;99.90
16102;DHT22;56411;52.964;10.540;2023-04-15T10:43:44;9.40;99.90
16102;DHT22;56411;52.964;10.540;2023-04-15T10:46:11;9.40;99.90
16102;DHT22;56411;52.964;10.540;2023-04-15T10:48:46;9.50;99.90
16102;DHT22;56411;52.964;10.540;2023-04-15T10:51:16;9.70;99.90
16102;DHT22;56411;52.964;10.540;2023-04-15T10:53:55;9.80;99.90
16102;DHT22;56411;52.964;10.540;2023-04-15T10:56:23;9.90;99.90
16102;DHT22;56411;52.964;10.540;2023-04-15T10:58:50;10.00;99.90
16102;DHT22;56411;52.964;10.540;2023-04-15T11:01:19;10.20;99.90
16102;DHT22;56411;52.964;10.540;2023-04-15T11:03:47;10.20;99.90
16102;DHT22;56411;52.964;10.540;2023-04-15T11:06:17;10.40;99.90
16102;DHT22;56411;52.964;10.540;2023-04-15T11:08:56;10.60;99.90
16102;DHT22;56411;52.964;10.540;2023-04-15T11:12:03;10.80;99.90
16102;DHT22;56411;52.964;10.540;2023-04-15T11:14:32;11.10;99.90
16102;DHT22;56411;52.964;10.540;2023-04-15T11:17:00;11.30;99.90
16102;DHT22;56411;52.964;10.540;2023-04-15T11:19:35;11.40;99.90
16102;DHT22;56411;52.964;10.540;2023-04-15T11:22:07;11.30;99.90
16102;DHT22;56411;52.964;10.540;2023-04-15T11:24:35;11.40;99.90
16102;DHT22;56411;52.964;10.540;2023-04-15T11:27:02;11.60;99.90
16102;DHT22;56411;52.964;10.540;2023-04-15T11:29:29;11.70;99.90
16102;DHT22;56411;52.964;10.540;2023-04-15T11:32:15;11.60;99.90
16102;DHT22;56411;52.964;10.540;2023-04-15T11:34:44;11.60;99.90
16102;DHT22;56411;52.964;10.540;2023-04-15T11:37:14;11.70;99.90
16102;DHT22;56411;52.964;10.540;2023-04-15T11:39:41;11.90;99.90
16102;DHT22;56411;52.964;10.540;2023-04-15T11:42:16;11.90;99.90
16102;DHT22;56411;52.964;10.540;2023-04-15T11:44:43;12.10;99.90
16102;DHT22;56411;52.964;10.540;2023-04-15T11:47:21;12.30;99.90
16102;DHT22;56411;52.964;10.540;2023-04-15T11:49:48;12.40;99.90
16102;DHT22;56411;52.964;10.540;2023-04-15T11:52:18;12.70;99.90
16102;DHT22;56411;52.964;10.540;2023-04-15T11:54:45;13.00;99.90
16102;DHT22;56411;52.964;10.540;2023-04-15T11:57:13;13.00;99.90
16102;DHT22;56411;52.964;10.540;2023-04-15T11:59:43;13.30;99.90
16102;DHT22;56411;52.964;10.540;2023-04-15T12:02:16;13.70;99.90
16102;DHT22;56411;52.964;10.540;2023-04-15T12:04:44;13.90;99.90
16102;DHT22;56411;52.964;10.540;2023-04-15T12:07:12;14.20;99.90
16102;DHT22;56411;52.964;10.540;2023-04-15T12:09:42;13.90;99.90
16102;DHT22;56411;52.964;10.540;2023-04-15T12:12:12;13.60;99.90
16102;DHT22;56411;52.964;10.540;2023-04-15T12:14:42;13.30;99.90
16102;DHT22;56411;52.964;10.540;2023-04-15T12:17:13;13.20;99.90
16102;DHT22;56411;52.964;10.540;2023-04-15T12:19:55;13.30;99.90
16102;DHT22;56411;52.964;10.540;2023-04-15T12:22:24;13.50;99.90
16102;DHT22;56411;52.964;10.540;2023-04-15T12:25:09;13.70;99.90
16102;DHT22;56411;52.964;10.540;2023-04-15T12:28:01;13.70;99.90
16102;DHT22;56411;52.964;10.540;2023-04-15T12:30:48;14.00;99.90
16102;DHT22;56411;52.964;10.540;2023-04-15T12:33:16;14.30;99.90
16102;DHT22;56411;52.964;10.540;2023-04-15T12:35:43;14.30;99.90
16102;DHT22;56411;52.964;10.540;2023-04-15T12:38:10;13.80;99.90
16102;DHT22;56411;52.964;10.540;2023-04-15T12:40:39;13.90;99.90
16102;DHT22;56411;52.964;10.540;2023-04-15T12:43:06;14.20;99.90
16102;DHT22;56411;52.964;10.540;2023-04-15T12:45:33;14.40;99.90
16102;DHT22;56411;52.964;10.540;2023-04-15T12:48:00;14.50;99.90
16102;DHT22;56411;52.964;10.540;2023-04-15T12:50:27;14.70;99.90
16102;DHT22;56411;52.964;10.540;2023-04-15T12:52:54;14.60;99.90
16102;DHT22;56411;52.964;10.540;2023-04-15T12:55:21;14.20;99.90
16102;DHT22;56411;52.964;10.540;2023-04-15T12:57:50;13.90;99.90
16102;DHT22;56411;52.964;10.540;2023-04-15T13:00:17;13.70;99.90
16102;DHT22;56411;52.964;10.540;2023-04-15T13:02:45;13.40;99.90
16102;DHT22;56411;52.964;10.540;2023-04-15T13:05:12;13.50;99.90
16102;DHT22;56411;52.964;10.540;2023-04-15T13:07:40;13.70;99.90
16102;DHT22;56411;52.964;10.540;2023-04-15T13:10:08;13.80;99.90
16102;DHT22;56411;52.964;10.540;2023-04-15T13:12:35;13.80;99.90
16102;DHT22;56411;52.964;10.540;2023-04-15T13:15:04;13.70;99.90
16102;DHT22;56411;52.964;10.540;2023-04-15T13:17:34;13.60;99.90
16102;DHT22;56411;52.964;10.540;2023-04-15T13:20:08;13.50;99.90
16102;DHT22;56411;52.964;10.540;2023-04-15T13:22:38;13.50;99.90
16102;DHT22;56411;52.964;10.540;2023-04-15T13:25:09;13.50;99.90
16102;DHT22;56411;52.964;10.540;2023-04-15T13:27:39;13.60;99.90
16102;DHT22;56411;52.964;10.540;2023-04-15T13:30:15;13.60;99.90
16102;DHT22;56411;52.964;10.540;2023-04-15T13:32:46;13.50;99.90
16102;DHT22;56411;52.964;10.540;2023-04-15T13:35:14;13.30;99.90
16102;DHT22;56411;52.964;10.540;2023-04-15T13:37:44;13.30;99.90
16102;DHT22;56411;52.964;10.540;2023-04-15T13:40:12;13.20;99.90
16102;DHT22;56411;52.964;10.540;2023-04-15T13:42:43;13.20;99.90
16102;DHT22;56411;52.964;10.540;2023-04-15T13:45:22;13.00;99.90
16102;DHT22;56411;52.964;10.540;2023-04-15T13:47:57;13.00;99.90
16102;DHT22;56411;52.964;10.540;2023-04-15T13:50:26;13.00;99.90
16102;DHT22;56411;52.964;10.540;2023-04-15T13:52:54;12.90;99.90
16102;DHT22;56411;52.964;10.540;2023-04-15T13:55:21;12.90;99.90
16102;DHT22;56411;52.964;10.540;2023-04-15T13:57:48;12.80;99.90
16102;DHT22;56411;52.964;10.540;2023-04-15T14:00:18;12.80;99.90
16102;DHT22;56411;52.964;10.540;2023-04-15T14:02:45;12.80;99.90
16102;DHT22;56411;52.964;10.540;2023-04-15T14:05:12;12.80;99.90
16102;DHT22;56411;52.964;10.540;2023-04-15T14:07:40;12.80;99.90
16102;DHT22;56411;52.964;10.540;2023-04-15T14:10:07;12.90;99.90
16102;DHT22;56411;52.964;10.540;2023-04-15T14:12:35;12.90;99.90
16102;DHT22;56411;52.964;10.540;2023-04-15T14:15:02;12.80;99.90
16102;DHT22;56411;52.964;10.540;2023-04-15T14:17:40;12.70;99.90
16102;DHT22;56411;52.964;10.540;2023-04-15T14:20:09;12.60;99.90
16102;DHT22;56411;52.964;10.540;2023-04-15T14:22:39;12.50;99.90
16102;DHT22;56411;52.964;10.540;2023-04-15T14:25:08;12.50;99.90
16102;DHT22;56411;52.964;10.540;2023-04-15T14:27:35;12.40;99.90
16102;DHT22;56411;52.964;10.540;2023-04-15T14:30:03;12.40;99.90
16102;DHT22;56411;52.964;10.540;2023-04-15T14:32:30;12.40;99.90
16102;DHT22;56411;52.964;10.540;2023-04-15T14:34:59;12.40;99.90
16102;DHT22;56411;52.964;10.540;2023-04-15T14:37:26;12.40;99.90
16102;DHT22;56411;52.964;10.540;2023-04-15T14:39:54;12.40;99.90
16102;DHT22;56411;52.964;10.540;2023-04-15T14:42:22;12.40;99.90
16102;DHT22;56411;52.964;10.540;2023-04-15T14:44:49;12.40;99.90
16102;DHT22;56411;52.964;10.540;2023-04-15T14:47:16;12.40;99.90
16102;DHT22;56411;52.964;10.540;2023-04-15T14:49:43;12.50;99.90
16102;DHT22;56411;52.964;10.540;2023-04-15T14:52:12;12.50;99.90
16102;DHT22;56411;52.964;10.540;2023-04-15T14:54:39;12.50;99.90
16102;DHT22;56411;52.964;10.540;2023-04-15T14:57:06;12.50;99.90
16102;DHT22;56411;52.964;10.540;2023-04-15T14:59:33;12.60;99.90
16102;DHT22;56411;52.964;10.540;2023-04-15T15:02:06;12.60;99.90
16102;DHT22;56411;52.964;10.540;2023-04-15T15:04:34;12.60;99.90
16102;DHT22;56411;52.964;10.540;2023-04-15T15:07:01;12.60;99.90
16102;DHT22;56411;52.964;10.540;2023-04-15T15:09:30;12.50;99.90
16102;DHT22;56411;52.964;10.540;2023-04-15T15:11:57;12.50;99.90
16102;DHT22;56411;52.964;10.540;2023-04-15T15:14:24;12.50;99.90
16102;DHT22;56411;52.964;10.540;2023-04-15T15:16:52;12.50;99.90
16102;DHT22;56411;52.964;10.540;2023-04-15T15:19:19;12.50;99.90
16102;DHT22;56411;52.964;10.540;2023-04-15T15:21:48;12.50;99.90
16102;DHT22;56411;52.964;10.540;2023-04-15T15:24:15;12.60;99.90
16102;DHT22;56411;52.964;10.540;2023-04-15T15:26:44;12.70;99.90
16102;DHT22;56411;52.964;10.540;2023-04-15T15:29:11;12.70;99.90
16102;DHT22;56411;52.964;10.540;2023-04-15T15:31:38;12.70;99.90
16102;DHT22;56411;52.964;10.540;2023-04-15T15:34:06;12.70;99.90
16102;DHT22;56411;52.964;10.540;2023-04-15T15:36:33;12.70;99.90